sensor_id;sensor_type;location;lat;lon;timestamp;temperature;humidity
11188;DHT22;5650;52.700;7.306;2023-02-28T00:01:29;3.30;99.90
11188;DHT22;5650;52.700;7.306;2023-02-28T00:04:02;3.30;99.90
11188;DHT22;5650;52.700;7.306;2023-02-28T00:06:33;3.30;99.90
11188;DHT22;5650;52.700;7.306;2023-02-28T00:09:01;3.30;99.90
11188;DHT22;5650;52.700;7.306;2023-02-28T00:11:30;3.30;99.90
11188;DHT22;5650;52.700;7.306;2023-02-28T00:13:58;3.30;99.90
11188;DHT22;5650;52.700;7.306;2023-02-28T00:16:32;3.30;99.90
11188;DHT22;5650;52.700;7.306;2023-02-28T00:19:04;3.30;99.90
11188;DHT22;5650;52.700;7.306;2023-02-28T00:21:36;3.30;99.90
11188;DHT22;5650;52.700;7.306;2023-02-28T00:24:06;3.30;99.90
11188;DHT22;5650;52.700;7.306;2023-02-28T00:26:34;3.30;99.90
11188;DHT22;5650;52.700;7.306;2023-02-28T00:29:01;3.30;99.90
11188;DHT22;5650;52.700;7.306;2023-02-28T00:31:28;3.40;99.90
11188;DHT22;5650;52.700;7.306;2023-02-28T00:33:55;3.40;99.90
11188;DHT22;5650;52.700;7.306;2023-02-28T00:36:27;3.40;99.90
11188;DHT22;5650;52.700;7.306;2023-02-28T00:38:56;3.40;99.90
11188;DHT22;5650;52.700;7.306;2023-02-28T00:41:26;3.40;99.90
11188;DHT22;5650;52.700;7.306;2023-02-28T00:43:54;3.40;99.90
11188;DHT22;5650;52.700;7.306;2023-02-28T00:46:24;3.40;99.90
11188;DHT22;5650;52.700;7.306;2023-02-28T00:48:59;3.40;99.90
11188;DHT22;5650;52.700;7.306;2023-02-28T00:51:29;3.40;99.90
11188;DHT22;5650;52.700;7.306;2023-02-28T00:53:58;3.40;99.90
11188;DHT22;5650;52.700;7.306;2023-02-28T00:56:25;3.40;99.90
11188;DHT22;5650;52.700;7.306;2023-02-28T00:58:55;3.40;99.90
11188;DHT22;5650;52.700;7.306;2023-02-28T01:01:22;3.50;99.90
11188;DHT22;5650;52.700;7.306;2023-02-28T01:03:50;3.50;99.90
11188;DHT22;5650;52.700;7.306;2023-02-28T01:06:17;3.50;99.90
11188;DHT22;5650;52.700;7.306;2023-02-28T01:08:44;3.50;99.90
11188;DHT22;5650;52.700;7.306;2023-02-28T01:11:15;3.50;99.90
11188;DHT22;5650;52.700;7.306;2023-02-28T01:13:45;3.50;99.90
11188;DHT22;5650;52.700;7.306;2023-02-28T01:16:13;3.50;99.90
11188;DHT22;5650;52.700;7.306;2023-02-28T01:18:40;3.50;99.90
11188;DHT22;5650;52.700;7.306;2023-02-28T01:21:10;3.50;99.90
11188;DHT22;5650;52.700;7.306;2023-02-28T01:23:38;3.50;99.90
11188;DHT22;5650;52.700;7.306;2023-02-28T01:26:06;3.50;99.90
11188;DHT22;5650;52.700;7.306;2023-02-28T01:28:35;3.50;99.90
11188;DHT22;5650;52.700;7.306;2023-02-28T01:31:02;3.50;99.90
11188;DHT22;5650;52.700;7.306;2023-02-28T01:33:30;3.50;99.90
11188;DHT22;5650;52.700;7.306;2023-02-28T01:36:00;3.50;99.90
11188;DHT22;5650;52.700;7.306;2023-02-28T01:38:33;3.50;99.90
11188;DHT22;5650;52.700;7.306;2023-02-28T01:41:07;3.50;99.90
11188;DHT22;5650;52.700;7.306;2023-02-28T01:44:01;3.40;99.90
11188;DHT22;5650;52.700;7.306;2023-02-28T01:46:30;3.40;99.90
11188;DHT22;5650;52.700;7.306;2023-02-28T01:49:03;3.40;99.90
11188;DHT22;5650;52.700;7.306;2023-02-28T01:51:35;3.40;99.90
11188;DHT22;5650;52.700;7.306;2023-02-28T01:54:05;3.40;99.90
11188;DHT22;5650;52.700;7.306;2023-02-28T01:56:43;3.30;99.90
11188;DHT22;5650;52.700;7.306;2023-02-28T01:59:23;3.30;99.90
11188;DHT22;5650;52.700;7.306;2023-02-28T02:01:52;3.30;99.90
11188;DHT22;5650;52.700;7.306;2023-02-28T02:04:20;3.30;99.90
11188;DHT22;5650;52.700;7.306;2023-02-28T02:06:48;3.30;99.90
11188;DHT22;5650;52.700;7.306;2023-02-28T02:09:16;3.30;99.90
11188;DHT22;5650;52.700;7.306;2023-02-28T02:11:44;3.30;99.90
11188;DHT22;5650;52.700;7.306;2023-02-28T02:14:40;3.30;99.90
11188;DHT22;5650;52.700;7.306;2023-02-28T02:17:19;3.30;99.90
11188;DHT22;5650;52.700;7.306;2023-02-28T02:32:22;3.30;99.90
11188;DHT22;5650;52.700;7.306;2023-02-28T02:35:07;3.40;99.90
11188;DHT22;5650;52.700;7.306;2023-02-28T02:37:42;3.40;99.90
11188;DHT22;5650;52.700;7.306;2023-02-28T02:40:14;3.40;99.90
11188;DHT22;5650;52.700;7.306;2023-02-28T02:42:47;3.40;99.90
11188;DHT22;5650;52.700;7.306;2023-02-28T02:45:20;3.40;99.90
11188;DHT22;5650;52.700;7.306;2023-02-28T02:47:51;3.40;99.90
11188;DHT22;5650;52.700;7.306;2023-02-28T02:50:24;3.40;99.90
11188;DHT22;5650;52.700;7.306;2023-02-28T02:53:01;3.40;99.90
11188;DHT22;5650;52.700;7.306;2023-02-28T02:55:32;3.30;99.90
11188;DHT22;5650;52.700;7.306;2023-02-28T02:58:03;3.30;99.90
11188;DHT22;5650;52.700;7.306;2023-02-28T03:00:34;3.30;99.90
11188;DHT22;5650;52.700;7.306;2023-02-28T03:03:05;3.30;99.90
11188;DHT22;5650;52.700;7.306;2023-02-28T03:05:42;3.30;99.90
11188;DHT22;5650;52.700;7.306;2023-02-28T03:08:14;3.20;99.90
11188;DHT22;5650;52.700;7.306;2023-02-28T03:10:42;3.20;99.90
11188;DHT22;5650;52.700;7.306;2023-02-28T03:13:39;3.20;99.90
11188;DHT22;5650;52.700;7.306;2023-02-28T03:16:37;3.20;99.90
11188;DHT22;5650;52.700;7.306;2023-02-28T03:19:23;3.20;99.90
11188;DHT22;5650;52.700;7.306;2023-02-28T03:22:07;3.20;99.90
11188;DHT22;5650;52.700;7.306;2023-02-28T03:24:43;3.20;99.90
11188;DHT22;5650;52.700;7.306;2023-02-28T03:27:17;3.20;99.90
11188;DHT22;5650;52.700;7.306;2023-02-28T03:29:54;3.20;99.90
11188;DHT22;5650;52.700;7.306;2023-02-28T03:32:35;3.20;99.90
11188;DHT22;5650;52.700;7.306;2023-02-28T03:35:09;3.20;99.90
11188;DHT22;5650;52.700;7.306;2023-02-28T03:37:42;3.20;99.90
11188;DHT22;5650;52.700;7.306;2023-02-28T03:40:13;3.20;99.90
11188;DHT22;5650;52.700;7.306;2023-02-28T03:42:53;3.20;99.90
11188;DHT22;5650;52.700;7.306;2023-02-28T03:45:25;3.20;99.90
11188;DHT22;5650;52.700;7.306;2023-02-28T03:48:01;3.20;99.90
11188;DHT22;5650;52.700;7.306;2023-02-28T03:50:35;3.20;99.90
11188;DHT22;5650;52.700;7.306;2023-02-28T03:53:14;3.20;99.90
11188;DHT22;5650;52.700;7.306;2023-02-28T03:55:51;3.20;99.90
11188;DHT22;5650;52.700;7.306;2023-02-28T03:58:24;3.20;99.90
11188;DHT22;5650;52.700;7.306;2023-02-28T04:01:03;3.20;99.90
11188;DHT22;5650;52.700;7.306;2023-02-28T04:03:37;3.20;99.90
11188;DHT22;5650;52.700;7.306;2023-02-28T04:06:07;3.20;99.90
11188;DHT22;5650;52.700;7.306;2023-02-28T04:08:41;3.20;99.90
11188;DHT22;5650;52.700;7.306;2023-02-28T04:11:20;3.30;99.90
11188;DHT22;5650;52.700;7.306;2023-02-28T04:13:50;3.20;99.90
11188;DHT22;5650;52.700;7.306;2023-02-28T04:16:17;3.20;99.90
11188;DHT22;5650;52.700;7.306;2023-02-28T04:18:45;3.20;99.90
11188;DHT22;5650;52.700;7.306;2023-02-28T04:21:12;3.20;99.90
11188;DHT22;5650;52.700;7.306;2023-02-28T04:23:44;3.20;99.90
11188;DHT22;5650;52.700;7.306;2023-02-28T04:26:11;3.20;99.90
11188;DHT22;5650;52.700;7.306;2023-02-28T04:28:38;3.10;99.90
11188;DHT22;5650;52.700;7.306;2023-02-28T04:31:08;3.10;99.90
11188;DHT22;5650;52.700;7.306;2023-02-28T04:33:39;3.10;99.90
11188;DHT22;5650;52.700;7.306;2023-02-28T04:36:08;3.20;99.90
11188;DHT22;5650;52.700;7.306;2023-02-28T04:38:36;3.20;99.90
11188;DHT22;5650;52.700;7.306;2023-02-28T04:41:08;3.10;99.90
11188;DHT22;5650;52.700;7.306;2023-02-28T04:43:35;3.10;99.90
11188;DHT22;5650;52.700;7.306;2023-02-28T04:46:04;3.10;99.90
11188;DHT22;5650;52.700;7.306;2023-02-28T04:48:36;3.00;99.90
11188;DHT22;5650;52.700;7.306;2023-02-28T04:51:09;3.00;99.90
11188;DHT22;5650;52.700;7.306;2023-02-28T04:53:37;3.00;99.90
11188;DHT22;5650;52.700;7.306;2023-02-28T04:56:06;2.90;99.90
11188;DHT22;5650;52.700;7.306;2023-02-28T04:58:35;2.80;99.90
11188;DHT22;5650;52.700;7.306;2023-02-28T05:01:04;2.80;99.90
11188;DHT22;5650;52.700;7.306;2023-02-28T05:03:48;2.70;99.90
11188;DHT22;5650;52.700;7.306;2023-02-28T05:06:15;2.70;99.90
11188;DHT22;5650;52.700;7.306;2023-02-28T05:08:43;2.60;99.90
11188;DHT22;5650;52.700;7.306;2023-02-28T05:11:18;2.60;99.90
11188;DHT22;5650;52.700;7.306;2023-02-28T05:13:48;2.50;99.90
11188;DHT22;5650;52.700;7.306;2023-02-28T05:16:16;2.50;99.90
11188;DHT22;5650;52.700;7.306;2023-02-28T05:18:46;2.50;99.90
11188;DHT22;5650;52.700;7.306;2023-02-28T05:21:26;2.40;99.90
11188;DHT22;5650;52.700;7.306;2023-02-28T05:23:54;2.40;99.90
11188;DHT22;5650;52.700;7.306;2023-02-28T05:26:21;2.40;99.90
11188;DHT22;5650;52.700;7.306;2023-02-28T05:28:50;2.30;99.90
11188;DHT22;5650;52.700;7.306;2023-02-28T05:31:18;2.30;99.90
11188;DHT22;5650;52.700;7.306;2023-02-28T05:33:45;2.20;99.90
11188;DHT22;5650;52.700;7.306;2023-02-28T05:36:13;2.20;99.90
11188;DHT22;5650;52.700;7.306;2023-02-28T05:38:40;2.20;99.90
11188;DHT22;5650;52.700;7.306;2023-02-28T05:41:08;2.10;99.90
11188;DHT22;5650;52.700;7.306;2023-02-28T05:43:36;2.10;99.90
11188;DHT22;5650;52.700;7.306;2023-02-28T05:46:06;2.10;99.90
11188;DHT22;5650;52.700;7.306;2023-02-28T05:48:34;2.10;99.90
11188;DHT22;5650;52.700;7.306;2023-02-28T05:51:02;2.20;99.90
11188;DHT22;5650;52.700;7.306;2023-02-28T05:53:30;2.20;99.90
11188;DHT22;5650;52.700;7.306;2023-02-28T05:55:58;2.20;99.90
11188;DHT22;5650;52.700;7.306;2023-02-28T05:58:26;2.20;99.90
11188;DHT22;5650;52.700;7.306;2023-02-28T06:00:56;2.20;99.90
11188;DHT22;5650;52.700;7.306;2023-02-28T06:03:25;2.20;99.90
11188;DHT22;5650;52.700;7.306;2023-02-28T06:05:53;2.20;99.90
11188;DHT22;5650;52.700;7.306;2023-02-28T06:08:20;2.20;99.90
11188;DHT22;5650;52.700;7.306;2023-02-28T06:10:47;2.20;99.90
11188;DHT22;5650;52.700;7.306;2023-02-28T06:13:14;2.30;99.90
11188;DHT22;5650;52.700;7.306;2023-02-28T06:15:42;2.20;99.90
11188;DHT22;5650;52.700;7.306;2023-02-28T06:18:12;2.30;99.90
11188;DHT22;5650;52.700;7.306;2023-02-28T06:20:44;2.30;99.90
11188;DHT22;5650;52.700;7.306;2023-02-28T06:23:11;2.30;99.90
11188;DHT22;5650;52.700;7.306;2023-02-28T06:25:44;2.30;99.90
11188;DHT22;5650;52.700;7.306;2023-02-28T06:28:14;2.30;99.90
11188;DHT22;5650;52.700;7.306;2023-02-28T06:30:44;2.30;99.90
11188;DHT22;5650;52.700;7.306;2023-02-28T06:33:11;2.30;99.90
11188;DHT22;5650;52.700;7.306;2023-02-28T06:35:46;2.30;99.90
11188;DHT22;5650;52.700;7.306;2023-02-28T06:38:17;2.30;99.90
11188;DHT22;5650;52.700;7.306;2023-02-28T06:40:45;2.40;99.90
11188;DHT22;5650;52.700;7.306;2023-02-28T06:43:19;2.30;99.90
11188;DHT22;5650;52.700;7.306;2023-02-28T06:45:49;2.40;99.90
11188;DHT22;5650;52.700;7.306;2023-02-28T06:48:23;2.40;99.90
11188;DHT22;5650;52.700;7.306;2023-02-28T06:51:07;2.40;99.90
11188;DHT22;5650;52.700;7.306;2023-02-28T06:53:35;2.40;99.90
11188;DHT22;5650;52.700;7.306;2023-02-28T06:56:04;2.40;99.90
11188;DHT22;5650;52.700;7.306;2023-02-28T06:58:32;2.50;99.90
11188;DHT22;5650;52.700;7.306;2023-02-28T07:01:02;2.50;99.90
11188;DHT22;5650;52.700;7.306;2023-02-28T07:03:30;2.50;99.90
11188;DHT22;5650;52.700;7.306;2023-02-28T07:06:00;2.50;99.90
11188;DHT22;5650;52.700;7.306;2023-02-28T07:08:34;2.50;99.90
11188;DHT22;5650;52.700;7.306;2023-02-28T07:11:03;2.50;99.90
11188;DHT22;5650;52.700;7.306;2023-02-28T07:13:30;2.60;99.90
11188;DHT22;5650;52.700;7.306;2023-02-28T07:15:59;2.60;99.90
11188;DHT22;5650;52.700;7.306;2023-02-28T07:18:27;2.70;99.90
11188;DHT22;5650;52.700;7.306;2023-02-28T07:20:54;2.70;99.90
11188;DHT22;5650;52.700;7.306;2023-02-28T07:23:29;2.80;99.90
11188;DHT22;5650;52.700;7.306;2023-02-28T07:25:58;2.80;99.90
11188;DHT22;5650;52.700;7.306;2023-02-28T07:28:25;2.90;99.90
11188;DHT22;5650;52.700;7.306;2023-02-28T07:30:52;2.90;99.90
11188;DHT22;5650;52.700;7.306;2023-02-28T07:33:20;2.90;99.90
11188;DHT22;5650;52.700;7.306;2023-02-28T07:35:47;3.00;99.90
11188;DHT22;5650;52.700;7.306;2023-02-28T07:38:15;3.20;99.90
11188;DHT22;5650;52.700;7.306;2023-02-28T07:40:45;3.50;99.90
11188;DHT22;5650;52.700;7.306;2023-02-28T07:43:17;3.80;99.90
11188;DHT22;5650;52.700;7.306;2023-02-28T07:45:44;4.30;99.90
11188;DHT22;5650;52.700;7.306;2023-02-28T07:48:11;4.70;99.90
11188;DHT22;5650;52.700;7.306;2023-02-28T07:50:38;5.20;99.90
11188;DHT22;5650;52.700;7.306;2023-02-28T07:53:05;5.60;99.90
11188;DHT22;5650;52.700;7.306;2023-02-28T07:55:35;6.00;99.90
11188;DHT22;5650;52.700;7.306;2023-02-28T07:58:06;6.40;99.90
11188;DHT22;5650;52.700;7.306;2023-02-28T08:00:34;6.80;99.90
11188;DHT22;5650;52.700;7.306;2023-02-28T08:03:02;7.00;99.90
11188;DHT22;5650;52.700;7.306;2023-02-28T08:05:38;7.30;99.90
11188;DHT22;5650;52.700;7.306;2023-02-28T08:08:05;7.60;99.90
11188;DHT22;5650;52.700;7.306;2023-02-28T08:10:33;8.00;99.90
11188;DHT22;5650;52.700;7.306;2023-02-28T08:13:00;8.40;99.90
11188;DHT22;5650;52.700;7.306;2023-02-28T08:15:27;8.60;99.90
11188;DHT22;5650;52.700;7.306;2023-02-28T08:17:56;8.80;99.90
11188;DHT22;5650;52.700;7.306;2023-02-28T08:20:24;9.10;99.90
11188;DHT22;5650;52.700;7.306;2023-02-28T08:22:51;9.40;99.90
11188;DHT22;5650;52.700;7.306;2023-02-28T08:25:19;9.60;99.90
11188;DHT22;5650;52.700;7.306;2023-02-28T08:27:46;9.70;99.90
11188;DHT22;5650;52.700;7.306;2023-02-28T08:30:16;9.80;99.90
11188;DHT22;5650;52.700;7.306;2023-02-28T08:32:44;9.90;99.90
11188;DHT22;5650;52.700;7.306;2023-02-28T08:35:18;9.90;99.90
11188;DHT22;5650;52.700;7.306;2023-02-28T08:37:48;9.50;99.90
11188;DHT22;5650;52.700;7.306;2023-02-28T08:40:16;8.90;99.90
11188;DHT22;5650;52.700;7.306;2023-02-28T08:42:44;8.30;99.90
11188;DHT22;5650;52.700;7.306;2023-02-28T08:45:11;7.80;99.90
11188;DHT22;5650;52.700;7.306;2023-02-28T08:47:39;7.40;99.90
11188;DHT22;5650;52.700;7.306;2023-02-28T08:50:13;7.10;99.90
11188;DHT22;5650;52.700;7.306;2023-02-28T08:52:42;6.80;99.90
11188;DHT22;5650;52.700;7.306;2023-02-28T08:55:09;6.60;99.90
11188;DHT22;5650;52.700;7.306;2023-02-28T08:57:37;6.40;99.90
11188;DHT22;5650;52.700;7.306;2023-02-28T09:00:11;6.40;99.90
11188;DHT22;5650;52.700;7.306;2023-02-28T09:02:39;6.30;99.90
11188;DHT22;5650;52.700;7.306;2023-02-28T09:05:08;6.30;99.90
11188;DHT22;5650;52.700;7.306;2023-02-28T09:07:39;6.20;99.90
11188;DHT22;5650;52.700;7.306;2023-02-28T09:10:08;6.10;99.90
11188;DHT22;5650;52.700;7.306;2023-02-28T09:12:35;6.00;99.90
11188;DHT22;5650;52.700;7.306;2023-02-28T09:15:06;6.00;99.90
11188;DHT22;5650;52.700;7.306;2023-02-28T09:17:36;6.00;99.90
11188;DHT22;5650;52.700;7.306;2023-02-28T09:20:07;6.00;99.90
11188;DHT22;5650;52.700;7.306;2023-02-28T09:22:42;6.00;99.90
11188;DHT22;5650;52.700;7.306;2023-02-28T09:25:10;5.90;99.90
11188;DHT22;5650;52.700;7.306;2023-02-28T09:27:41;6.00;99.90
11188;DHT22;5650;52.700;7.306;2023-02-28T09:30:09;6.00;99.90
11188;DHT22;5650;52.700;7.306;2023-02-28T09:32:37;6.00;99.90
11188;DHT22;5650;52.700;7.306;2023-02-28T09:35:05;6.10;99.90
11188;DHT22;5650;52.700;7.306;2023-02-28T09:37:32;6.20;99.90
11188;DHT22;5650;52.700;7.306;2023-02-28T09:40:01;6.20;99.90
11188;DHT22;5650;52.700;7.306;2023-02-28T09:42:36;6.20;99.90
11188;DHT22;5650;52.700;7.306;2023-02-28T09:45:10;6.20;99.90
11188;DHT22;5650;52.700;7.306;2023-02-28T09:47:42;6.20;99.50
11188;DHT22;5650;52.700;7.306;2023-02-28T09:50:23;6.30;98.90
11188;DHT22;5650;52.700;7.306;2023-02-28T09:52:55;6.30;98.90
11188;DHT22;5650;52.700;7.306;2023-02-28T09:55:31;6.30;98.60
11188;DHT22;5650;52.700;7.306;2023-02-28T09:58:01;6.40;98.80
11188;DHT22;5650;52.700;7.306;2023-02-28T10:00:33;6.50;99.10
11188;DHT22;5650;52.700;7.306;2023-02-28T10:03:06;6.50;98.90
11188;DHT22;5650;52.700;7.306;2023-02-28T10:05:49;6.60;98.70
11188;DHT22;5650;52.700;7.306;2023-02-28T10:08:21;6.60;98.50
11188;DHT22;5650;52.700;7.306;2023-02-28T10:10:54;6.60;98.50
11188;DHT22;5650;52.700;7.306;2023-02-28T10:13:34;6.70;98.90
11188;DHT22;5650;52.700;7.306;2023-02-28T10:16:10;6.80;98.50
11188;DHT22;5650;52.700;7.306;2023-02-28T10:18:42;6.80;98.40
11188;DHT22;5650;52.700;7.306;2023-02-28T10:21:18;6.80;98.10
11188;DHT22;5650;52.700;7.306;2023-02-28T10:23:48;6.80;97.80
11188;DHT22;5650;52.700;7.306;2023-02-28T10:26:18;6.70;97.10
11188;DHT22;5650;52.700;7.306;2023-02-28T10:28:48;6.70;97.20
11188;DHT22;5650;52.700;7.306;2023-02-28T10:31:19;6.70;97.40
11188;DHT22;5650;52.700;7.306;2023-02-28T10:33:47;6.70;97.30
11188;DHT22;5650;52.700;7.306;2023-02-28T10:36:16;6.70;97.40
11188;DHT22;5650;52.700;7.306;2023-02-28T10:38:45;6.70;97.00
11188;DHT22;5650;52.700;7.306;2023-02-28T10:41:14;6.70;96.40
11188;DHT22;5650;52.700;7.306;2023-02-28T10:43:51;6.70;96.80
11188;DHT22;5650;52.700;7.306;2023-02-28T10:46:24;6.70;96.60
11188;DHT22;5650;52.700;7.306;2023-02-28T10:49:03;6.70;96.80
11188;DHT22;5650;52.700;7.306;2023-02-28T10:51:37;6.70;96.60
11188;DHT22;5650;52.700;7.306;2023-02-28T10:54:14;6.70;95.70
11188;DHT22;5650;52.700;7.306;2023-02-28T10:56:42;6.70;95.90
11188;DHT22;5650;52.700;7.306;2023-02-28T10:59:29;6.70;96.00
11188;DHT22;5650;52.700;7.306;2023-02-28T11:02:00;6.70;95.80
11188;DHT22;5650;52.700;7.306;2023-02-28T11:04:35;6.70;95.70
11188;DHT22;5650;52.700;7.306;2023-02-28T11:07:09;6.70;95.70
11188;DHT22;5650;52.700;7.306;2023-02-28T11:09:48;6.70;95.50
11188;DHT22;5650;52.700;7.306;2023-02-28T11:12:22;6.80;95.60
11188;DHT22;5650;52.700;7.306;2023-02-28T11:14:53;6.80;95.60
11188;DHT22;5650;52.700;7.306;2023-02-28T11:17:31;6.80;95.60
11188;DHT22;5650;52.700;7.306;2023-02-28T11:20:03;6.90;95.30
11188;DHT22;5650;52.700;7.306;2023-02-28T11:22:35;6.90;95.40
11188;DHT22;5650;52.700;7.306;2023-02-28T11:25:12;6.90;95.70
11188;DHT22;5650;52.700;7.306;2023-02-28T11:27:46;6.90;95.30
11188;DHT22;5650;52.700;7.306;2023-02-28T11:30:34;7.00;95.10
11188;DHT22;5650;52.700;7.306;2023-02-28T11:33:22;7.00;94.90
11188;DHT22;5650;52.700;7.306;2023-02-28T11:35:51;7.10;95.20
11188;DHT22;5650;52.700;7.306;2023-02-28T11:38:18;7.10;94.80
11188;DHT22;5650;52.700;7.306;2023-02-28T11:41:02;7.00;95.20
11188;DHT22;5650;52.700;7.306;2023-02-28T11:43:42;7.10;95.10
11188;DHT22;5650;52.700;7.306;2023-02-28T11:46:22;7.00;94.90
11188;DHT22;5650;52.700;7.306;2023-02-28T11:49:00;7.00;95.10
11188;DHT22;5650;52.700;7.306;2023-02-28T11:51:33;7.00;95.20
11188;DHT22;5650;52.700;7.306;2023-02-28T11:54:21;7.00;95.10
11188;DHT22;5650;52.700;7.306;2023-02-28T11:56:54;7.00;95.30
11188;DHT22;5650;52.700;7.306;2023-02-28T11:59:36;7.10;95.00
11188;DHT22;5650;52.700;7.306;2023-02-28T12:02:23;7.10;95.20
11188;DHT22;5650;52.700;7.306;2023-02-28T12:05:05;7.10;95.10
11188;DHT22;5650;52.700;7.306;2023-02-28T12:07:43;7.10;95.00
11188;DHT22;5650;52.700;7.306;2023-02-28T12:10:21;7.10;95.00
11188;DHT22;5650;52.700;7.306;2023-02-28T12:13:01;7.10;95.50
11188;DHT22;5650;52.700;7.306;2023-02-28T12:15:59;7.10;95.30
11188;DHT22;5650;52.700;7.306;2023-02-28T12:21:34;7.20;95.60
11188;DHT22;5650;52.700;7.306;2023-02-28T12:26:59;7.40;95.40
11188;DHT22;5650;52.700;7.306;2023-02-28T12:29:29;7.40;94.80
11188;DHT22;5650;52.700;7.306;2023-02-28T12:32:04;7.40;94.70
11188;DHT22;5650;52.700;7.306;2023-02-28T12:34:36;7.40;94.00
11188;DHT22;5650;52.700;7.306;2023-02-28T12:37:07;7.40;94.00
11188;DHT22;5650;52.700;7.306;2023-02-28T12:39:39;7.40;94.30
11188;DHT22;5650;52.700;7.306;2023-02-28T12:42:11;7.40;94.20
11188;DHT22;5650;52.700;7.306;2023-02-28T12:44:44;7.30;93.80
11188;DHT22;5650;52.700;7.306;2023-02-28T12:47:17;7.30;94.00
11188;DHT22;5650;52.700;7.306;2023-02-28T12:49:50;7.30;93.90
11188;DHT22;5650;52.700;7.306;2023-02-28T12:52:31;7.30;94.10
11188;DHT22;5650;52.700;7.306;2023-02-28T12:55:05;7.30;94.40
11188;DHT22;5650;52.700;7.306;2023-02-28T12:57:40;7.30;94.10
11188;DHT22;5650;52.700;7.306;2023-02-28T13:00:13;7.20;94.30
11188;DHT22;5650;52.700;7.306;2023-02-28T13:03:04;7.20;94.60
11188;DHT22;5650;52.700;7.306;2023-02-28T13:09:01;7.30;94.90
11188;DHT22;5650;52.700;7.306;2023-02-28T13:11:32;7.40;94.50
11188;DHT22;5650;52.700;7.306;2023-02-28T13:14:01;7.40;94.60
11188;DHT22;5650;52.700;7.306;2023-02-28T13:16:51;7.50;94.30
11188;DHT22;5650;52.700;7.306;2023-02-28T13:19:22;7.40;93.80
11188;DHT22;5650;52.700;7.306;2023-02-28T13:21:50;7.30;93.90
11188;DHT22;5650;52.700;7.306;2023-02-28T13:24:48;7.30;94.10
11188;DHT22;5650;52.700;7.306;2023-02-28T13:27:38;7.30;94.30
11188;DHT22;5650;52.700;7.306;2023-02-28T13:33:27;7.40;94.60
11188;DHT22;5650;52.700;7.306;2023-02-28T13:36:25;7.40;94.40
11188;DHT22;5650;52.700;7.306;2023-02-28T13:38:52;7.40;94.40
11188;DHT22;5650;52.700;7.306;2023-02-28T13:47:53;7.50;94.00
11188;DHT22;5650;52.700;7.306;2023-02-28T13:50:33;7.50;93.90
11188;DHT22;5650;52.700;7.306;2023-02-28T13:53:30;7.50;93.70
11188;DHT22;5650;52.700;7.306;2023-02-28T13:56:05;7.50;93.70
11188;DHT22;5650;52.700;7.306;2023-02-28T13:58:51;7.50;93.90
11188;DHT22;5650;52.700;7.306;2023-02-28T14:01:43;7.50;92.90
11188;DHT22;5650;52.700;7.306;2023-02-28T14:04:48;7.50;93.00
11188;DHT22;5650;52.700;7.306;2023-02-28T14:07:20;7.50;93.30
11188;DHT22;5650;52.700;7.306;2023-02-28T14:09:58;7.50;93.60
11188;DHT22;5650;52.700;7.306;2023-02-28T14:15:44;7.40;93.10
11188;DHT22;5650;52.700;7.306;2023-02-28T14:18:29;7.40;92.90
11188;DHT22;5650;52.700;7.306;2023-02-28T14:21:02;7.40;92.70
11188;DHT22;5650;52.700;7.306;2023-02-28T14:24:03;7.30;93.00
11188;DHT22;5650;52.700;7.306;2023-02-28T14:32:58;7.40;93.60
11188;DHT22;5650;52.700;7.306;2023-02-28T14:35:49;7.40;93.30
11188;DHT22;5650;52.700;7.306;2023-02-28T14:38:20;7.40;93.00
11188;DHT22;5650;52.700;7.306;2023-02-28T14:40:51;7.40;92.80
11188;DHT22;5650;52.700;7.306;2023-02-28T14:43:21;7.40;92.80
11188;DHT22;5650;52.700;7.306;2023-02-28T14:45:56;7.50;92.90
11188;DHT22;5650;52.700;7.306;2023-02-28T14:48:24;7.50;93.00
11188;DHT22;5650;52.700;7.306;2023-02-28T14:51:01;7.50;93.20
11188;DHT22;5650;52.700;7.306;2023-02-28T14:53:36;7.50;93.40
11188;DHT22;5650;52.700;7.306;2023-02-28T14:56:05;7.60;93.50
11188;DHT22;5650;52.700;7.306;2023-02-28T14:58:40;7.50;92.80
11188;DHT22;5650;52.700;7.306;2023-02-28T15:01:19;7.50;92.80
11188;DHT22;5650;52.700;7.306;2023-02-28T15:04:01;7.50;92.70
11188;DHT22;5650;52.700;7.306;2023-02-28T15:06:30;7.40;92.80
11188;DHT22;5650;52.700;7.306;2023-02-28T15:09:14;7.50;93.00
11188;DHT22;5650;52.700;7.306;2023-02-28T15:11:42;7.50;93.00
11188;DHT22;5650;52.700;7.306;2023-02-28T15:14:17;7.50;93.00
11188;DHT22;5650;52.700;7.306;2023-02-28T15:16:48;7.40;92.90
11188;DHT22;5650;52.700;7.306;2023-02-28T15:19:21;7.40;92.50
11188;DHT22;5650;52.700;7.306;2023-02-28T15:21:54;7.40;92.60
11188;DHT22;5650;52.700;7.306;2023-02-28T15:24:34;7.40;92.60
11188;DHT22;5650;52.700;7.306;2023-02-28T15:27:05;7.30;92.70
11188;DHT22;5650;52.700;7.306;2023-02-28T15:29:42;7.30;92.70
11188;DHT22;5650;52.700;7.306;2023-02-28T15:32:28;7.20;92.80
11188;DHT22;5650;52.700;7.306;2023-02-28T15:34:56;7.20;92.80
11188;DHT22;5650;52.700;7.306;2023-02-28T15:37:37;7.10;92.90
11188;DHT22;5650;52.700;7.306;2023-02-28T15:40:14;7.10;93.20
11188;DHT22;5650;52.700;7.306;2023-02-28T15:42:42;7.10;93.20
11188;DHT22;5650;52.700;7.306;2023-02-28T15:45:44;7.10;93.20
11188;DHT22;5650;52.700;7.306;2023-02-28T15:48:18;7.10;93.00
11188;DHT22;5650;52.700;7.306;2023-02-28T15:50:52;7.10;93.20
11188;DHT22;5650;52.700;7.306;2023-02-28T15:53:24;7.10;93.40
11188;DHT22;5650;52.700;7.306;2023-02-28T15:55:55;7.00;93.50
11188;DHT22;5650;52.700;7.306;2023-02-28T15:58:24;7.10;93.60
11188;DHT22;5650;52.700;7.306;2023-02-28T16:01:07;7.00;93.70
11188;DHT22;5650;52.700;7.306;2023-02-28T16:03:53;7.00;93.90
11188;DHT22;5650;52.700;7.306;2023-02-28T16:06:33;7.00;94.00
11188;DHT22;5650;52.700;7.306;2023-02-28T16:09:03;7.00;94.10
11188;DHT22;5650;52.700;7.306;2023-02-28T16:11:35;6.90;94.40
11188;DHT22;5650;52.700;7.306;2023-02-28T16:14:13;6.90;94.70
11188;DHT22;5650;52.700;7.306;2023-02-28T16:16:43;6.90;94.90
11188;DHT22;5650;52.700;7.306;2023-02-28T16:19:11;6.80;95.10
11188;DHT22;5650;52.700;7.306;2023-02-28T16:21:38;6.80;95.10
11188;DHT22;5650;52.700;7.306;2023-02-28T16:24:09;6.70;95.30
11188;DHT22;5650;52.700;7.306;2023-02-28T16:26:36;6.70;95.70
11188;DHT22;5650;52.700;7.306;2023-02-28T16:29:10;6.70;95.40
11188;DHT22;5650;52.700;7.306;2023-02-28T16:31:40;6.70;95.50
11188;DHT22;5650;52.700;7.306;2023-02-28T16:34:07;6.60;95.60
11188;DHT22;5650;52.700;7.306;2023-02-28T16:36:34;6.60;95.80
11188;DHT22;5650;52.700;7.306;2023-02-28T16:39:02;6.50;95.80
11188;DHT22;5650;52.700;7.306;2023-02-28T16:41:34;6.40;95.80
11188;DHT22;5650;52.700;7.306;2023-02-28T16:44:01;6.40;95.80
11188;DHT22;5650;52.700;7.306;2023-02-28T16:46:33;6.30;95.70
11188;DHT22;5650;52.700;7.306;2023-02-28T16:49:01;6.30;95.80
11188;DHT22;5650;52.700;7.306;2023-02-28T16:51:31;6.20;95.90
11188;DHT22;5650;52.700;7.306;2023-02-28T16:53:58;6.20;95.90
11188;DHT22;5650;52.700;7.306;2023-02-28T16:56:26;6.10;96.10
11188;DHT22;5650;52.700;7.306;2023-02-28T16:58:58;6.00;96.10
11188;DHT22;5650;52.700;7.306;2023-02-28T17:01:29;6.00;96.20
11188;DHT22;5650;52.700;7.306;2023-02-28T17:03:57;5.90;96.30
11188;DHT22;5650;52.700;7.306;2023-02-28T17:06:26;5.80;96.40
11188;DHT22;5650;52.700;7.306;2023-02-28T17:08:54;5.80;96.60
11188;DHT22;5650;52.700;7.306;2023-02-28T17:11:25;5.70;96.70
11188;DHT22;5650;52.700;7.306;2023-02-28T17:13:54;5.60;96.80
11188;DHT22;5650;52.700;7.306;2023-02-28T17:16:30;5.60;96.90
11188;DHT22;5650;52.700;7.306;2023-02-28T17:18:59;5.50;96.90